createdAt,value
2018-06-13T00:00:41.195Z,99.90
2018-06-13T00:03:11.025Z,99.90
2018-06-13T00:05:40.847Z,99.90
2018-06-13T00:08:10.039Z,99.90
2018-06-13T00:10:40.408Z,99.90
2018-06-13T00:13:10.123Z,99.90
2018-06-13T00:15:39.826Z,99.90
2018-06-13T00:18:08.679Z,99.90
2018-06-13T00:20:38.428Z,99.90
2018-06-13T00:23:07.516Z,99.90
2018-06-13T00:25:37.262Z,99.90
2018-06-13T00:28:06.849Z,99.90
2018-06-13T00:30:36.571Z,99.90
2018-06-13T00:33:06.565Z,99.90
2018-06-13T00:35:36.353Z,99.90
2018-06-13T00:40:34.852Z,99.90
2018-06-13T00:43:04.052Z,99.90
2018-06-13T00:45:33.847Z,99.90
2018-06-13T00:48:03.570Z,99.90
2018-06-13T00:50:33.444Z,99.90
2018-06-13T00:53:02.281Z,99.90
2018-06-13T00:55:31.208Z,99.90
2018-06-13T00:58:00.089Z,99.90
2018-06-13T01:00:28.928Z,99.90
2018-06-13T01:02:57.795Z,99.90
2018-06-13T01:05:26.618Z,99.90
2018-06-13T01:07:55.495Z,99.90
2018-06-13T01:10:25.834Z,99.90
2018-06-13T01:12:54.945Z,99.90
2018-06-13T01:15:24.116Z,99.90
2018-06-13T01:17:53.947Z,99.90
2018-06-13T01:20:23.819Z,99.90
2018-06-13T01:22:52.949Z,99.90
2018-06-13T01:25:22.123Z,99.90
2018-06-13T01:27:51.304Z,99.90
2018-06-13T01:30:20.597Z,99.90
2018-06-13T01:32:51.064Z,99.90
2018-06-13T01:35:20.284Z,99.90
2018-06-13T01:37:49.515Z,99.90
2018-06-13T01:40:18.572Z,99.90
2018-06-13T01:45:17.088Z,99.90
2018-06-13T01:47:46.236Z,99.90
2018-06-13T01:50:15.945Z,99.90
2018-06-13T01:52:45.241Z,99.90
2018-06-13T01:55:14.298Z,99.90
2018-06-13T01:57:43.900Z,99.90
2018-06-13T02:00:14.674Z,99.90
2018-06-13T02:02:45.311Z,99.90
2018-06-13T02:05:17.655Z,99.90
2018-06-13T02:07:47.011Z,99.90
2018-06-13T02:10:15.860Z,99.90
2018-06-13T02:12:44.692Z,99.90
2018-06-13T02:15:13.555Z,99.90
2018-06-13T02:17:42.428Z,99.90
2018-06-13T02:20:11.300Z,99.90
2018-06-13T02:22:40.189Z,99.90
2018-06-13T02:25:09.795Z,99.90
2018-06-13T02:27:40.490Z,99.90
2018-06-13T02:30:10.040Z,99.90
2018-06-13T02:32:41.994Z,99.90
2018-06-13T02:35:11.574Z,99.90
2018-06-13T02:37:40.556Z,99.90
2018-06-13T02:40:09.696Z,99.90
2018-06-13T02:42:39.762Z,99.90
2018-06-13T02:45:09.403Z,99.90
2018-06-13T02:47:39.202Z,99.90
2018-06-13T02:50:08.785Z,99.90
2018-06-13T02:52:37.977Z,99.90
2018-06-13T02:55:07.213Z,99.90
2018-06-13T02:57:37.210Z,99.90
2018-06-13T03:00:07.895Z,99.90
2018-06-13T03:02:37.731Z,99.90
2018-06-13T03:05:06.795Z,99.90
2018-06-13T03:07:35.956Z,99.90
2018-06-13T03:10:05.390Z,99.90
2018-06-13T03:12:34.607Z,99.90
2018-06-13T03:15:03.825Z,99.90
2018-06-13T03:17:33.520Z,99.90
2018-06-13T03:20:02.748Z,99.90
2018-06-13T03:22:31.920Z,99.90
2018-06-13T03:25:01.039Z,99.90
2018-06-13T03:27:29.908Z,99.90
2018-06-13T03:29:58.799Z,99.90
2018-06-13T03:32:27.670Z,99.90
2018-06-13T03:34:56.534Z,99.90
2018-06-13T03:37:25.381Z,99.90
2018-06-13T03:39:54.268Z,99.90
2018-06-13T03:42:23.524Z,99.90
2018-06-13T03:44:52.721Z,99.90
2018-06-13T03:47:22.874Z,99.90
2018-06-13T03:49:52.023Z,99.90
2018-06-13T03:52:21.617Z,99.90
2018-06-13T03:54:50.727Z,99.90
2018-06-13T03:57:19.860Z,99.90
2018-06-13T03:59:49.326Z,99.90
2018-06-13T04:02:18.553Z,99.90
2018-06-13T04:04:49.392Z,99.90
2018-06-13T04:07:18.494Z,99.90
2018-06-13T04:09:47.748Z,99.90
2018-06-13T04:12:17.887Z,99.90
2018-06-13T04:14:47.274Z,99.90
2018-06-13T04:17:17.007Z,99.90
2018-06-13T04:19:46.055Z,99.90
2018-06-13T04:22:15.357Z,99.90
2018-06-13T04:24:44.694Z,99.90
2018-06-13T04:27:14.367Z,99.90
2018-06-13T04:29:44.208Z,99.90
2018-06-13T04:32:13.134Z,99.90
2018-06-13T04:34:42.026Z,99.90
2018-06-13T04:37:10.981Z,99.90
2018-06-13T04:39:41.201Z,99.90
2018-06-13T04:42:11.109Z,99.90
2018-06-13T04:44:39.996Z,99.90
2018-06-13T04:47:08.871Z,99.80
2018-06-13T04:49:37.777Z,99.30
2018-06-13T04:52:06.663Z,97.50
2018-06-13T04:54:35.572Z,95.50
2018-06-13T04:57:04.923Z,93.40
2018-06-13T04:59:33.882Z,93.80
2018-06-13T05:02:02.835Z,94.60
2018-06-13T05:04:31.973Z,94.90
2018-06-13T05:07:01.323Z,94.20
2018-06-13T05:09:30.931Z,94.10
2018-06-13T05:12:00.627Z,94.60
2018-06-13T05:14:29.788Z,94.30
2018-06-13T05:17:00.154Z,95.10
2018-06-13T05:19:29.299Z,94.00
2018-06-13T05:21:58.445Z,93.40
2018-06-13T05:24:27.712Z,92.70
2018-06-13T05:26:56.656Z,92.50
2018-06-13T05:29:25.779Z,90.20
2018-06-13T05:31:55.532Z,90.10
2018-06-13T05:34:25.202Z,89.10
2018-06-13T05:36:56.039Z,83.80
2018-06-13T05:39:25.184Z,83.70
2018-06-13T05:41:55.296Z,87.20
2018-06-13T05:44:24.787Z,90.30
2018-06-13T05:46:53.878Z,90.00
2018-06-13T05:49:23.704Z,88.30
2018-06-13T05:51:53.264Z,90.40
2018-06-13T05:54:23.209Z,91.10
2018-06-13T05:56:52.088Z,89.40
2018-06-13T05:59:21.279Z,91.80
2018-06-13T06:01:50.122Z,90.70
2018-06-13T06:04:18.979Z,89.90
2018-06-13T06:06:47.891Z,90.90
2018-06-13T06:09:16.812Z,90.60
2018-06-13T06:11:45.688Z,91.00
2018-06-13T06:14:15.181Z,92.30
2018-06-13T06:16:44.429Z,92.80
2018-06-13T06:19:14.513Z,92.00
2018-06-13T06:21:43.538Z,91.20
2018-06-13T06:24:12.742Z,92.30
2018-06-13T06:26:41.661Z,93.90
2018-06-13T06:29:10.632Z,92.30
2018-06-13T06:31:39.910Z,92.70
2018-06-13T06:34:09.184Z,95.10
2018-06-13T06:36:39.127Z,94.50
2018-06-13T06:39:08.924Z,95.20
2018-06-13T06:41:38.080Z,95.80
2018-06-13T06:44:08.096Z,95.90
2018-06-13T06:46:38.111Z,95.10
2018-06-13T06:49:07.952Z,93.60
2018-06-13T06:51:37.109Z,92.50
2018-06-13T06:54:06.831Z,92.60
2018-06-13T06:56:35.918Z,93.60
2018-06-13T06:59:04.849Z,93.10
2018-06-13T07:01:34.758Z,93.60
2018-06-13T07:04:05.389Z,93.80
2018-06-13T07:06:34.651Z,92.70
2018-06-13T07:09:06.347Z,99.90
2018-06-13T07:11:35.900Z,99.40
2018-06-13T07:14:05.168Z,92.10
2018-06-13T07:16:34.278Z,91.50
2018-06-13T07:19:04.187Z,83.70
2018-06-13T07:21:33.084Z,82.00
2018-06-13T07:24:02.029Z,75.40
2018-06-13T07:26:30.903Z,71.60
2018-06-13T07:28:59.748Z,71.40
2018-06-13T07:31:28.679Z,73.40
2018-06-13T07:33:57.951Z,73.40
2018-06-13T07:36:26.876Z,73.90
2018-06-13T07:38:56.650Z,76.30
2018-06-13T07:41:27.597Z,75.20
2018-06-13T07:43:56.771Z,78.80
2018-06-13T07:46:25.847Z,79.80
2018-06-13T07:48:54.796Z,82.50
2018-06-13T07:51:23.947Z,86.30
2018-06-13T07:53:52.958Z,85.40
2018-06-13T07:56:21.830Z,90.00
2018-06-13T07:58:50.758Z,89.90
2018-06-13T08:01:19.616Z,90.60
2018-06-13T08:03:48.540Z,92.70
2018-06-13T08:06:17.439Z,93.20
2018-06-13T08:08:46.331Z,91.70
2018-06-13T08:11:15.240Z,91.10
2018-06-13T08:13:45.625Z,92.40
2018-06-13T08:16:14.598Z,90.30
2018-06-13T08:18:43.607Z,91.40
2018-06-13T08:21:12.509Z,91.10
2018-06-13T08:23:41.397Z,90.30
2018-06-13T08:26:11.436Z,85.90
2018-06-13T08:28:40.344Z,85.50
2018-06-13T08:31:09.185Z,94.00
2018-06-13T08:33:38.039Z,92.50
2018-06-13T08:36:06.952Z,98.50
2018-06-13T08:38:36.105Z,93.60
2018-06-13T08:41:05.052Z,95.70
2018-06-13T08:43:33.900Z,93.20
2018-06-13T08:46:02.808Z,97.60
2018-06-13T08:48:32.535Z,91.70
2018-06-13T08:51:02.181Z,99.90
2018-06-13T08:53:31.277Z,99.90
2018-06-13T08:56:00.778Z,99.90
2018-06-13T08:58:30.020Z,99.90
2018-06-13T09:00:59.092Z,99.80
2018-06-13T09:03:27.957Z,98.40
2018-06-13T09:05:57.094Z,99.90
2018-06-13T09:08:25.947Z,98.10
2018-06-13T09:10:55.640Z,97.40
2018-06-13T09:13:24.781Z,98.70
2018-06-13T09:15:54.437Z,94.00
2018-06-13T09:18:23.290Z,90.30
2018-06-13T09:20:52.191Z,81.80
2018-06-13T09:25:49.667Z,71.40
2018-06-13T09:28:18.516Z,70.60
2018-06-13T09:30:47.774Z,77.30
2018-06-13T09:33:16.702Z,79.40
2018-06-13T09:35:45.576Z,79.80
2018-06-13T09:38:14.479Z,90.70
2018-06-13T09:40:43.402Z,78.60
2018-06-13T09:43:12.231Z,83.80
2018-06-13T09:45:41.159Z,83.00
2018-06-13T09:48:09.986Z,95.70
2018-06-13T09:50:38.866Z,93.10
2018-06-13T09:53:07.738Z,81.00
2018-06-13T09:55:36.626Z,71.60
2018-06-13T09:58:05.889Z,75.00
2018-06-13T10:00:40.003Z,86.20
2018-06-13T10:03:10.736Z,71.10
2018-06-13T10:05:40.386Z,67.50
2018-06-13T10:08:09.652Z,65.80
2018-06-13T10:10:38.504Z,63.20
2018-06-13T10:13:07.830Z,58.80
2018-06-13T10:15:37.595Z,60.80
2018-06-13T10:18:06.631Z,58.20
2018-06-13T10:20:35.730Z,61.40
2018-06-13T10:23:04.566Z,60.10
2018-06-13T10:25:33.771Z,65.10
2018-06-13T10:28:02.687Z,61.50
2018-06-13T10:30:31.942Z,68.50
2018-06-13T10:33:01.449Z,66.50
2018-06-13T10:35:30.577Z,69.30
2018-06-13T10:38:00.317Z,67.30
2018-06-13T10:40:29.367Z,74.60
2018-06-13T10:42:58.549Z,76.10
2018-06-13T10:45:27.399Z,73.10
2018-06-13T10:47:56.558Z,93.20
2018-06-13T10:50:25.606Z,72.60
2018-06-13T10:52:54.744Z,82.80
2018-06-13T10:55:23.570Z,86.60
2018-06-13T10:57:52.623Z,71.90
2018-06-13T11:00:21.446Z,78.10
2018-06-13T11:02:50.348Z,76.30
2018-06-13T11:05:19.215Z,77.90
2018-06-13T11:07:48.112Z,76.20
2018-06-13T11:10:16.943Z,74.80
2018-06-13T11:12:45.835Z,62.50
2018-06-13T11:15:14.944Z,62.20
2018-06-13T11:17:45.060Z,59.20
2018-06-13T11:20:13.879Z,49.30
2018-06-13T11:22:42.996Z,52.40
2018-06-13T11:25:13.524Z,47.40
2018-06-13T11:27:42.659Z,50.20
2018-06-13T11:30:11.755Z,50.70
2018-06-13T11:32:41.524Z,54.40
2018-06-13T11:35:10.555Z,57.50
2018-06-13T11:37:39.384Z,55.40
2018-06-13T11:40:08.334Z,55.50
2018-06-13T11:42:38.758Z,57.70
2018-06-13T11:45:08.475Z,56.10
2018-06-13T11:47:37.614Z,50.30
2018-06-13T11:50:08.038Z,51.30
2018-06-13T11:52:37.850Z,52.50
2018-06-13T11:55:07.427Z,53.80
2018-06-13T11:57:36.423Z,53.90
2018-06-13T12:00:07.018Z,51.90
2018-06-13T12:02:36.005Z,57.90
2018-06-13T12:05:05.519Z,56.40
2018-06-13T12:07:34.599Z,58.50
2018-06-13T12:10:03.523Z,55.60
2018-06-13T12:12:32.417Z,56.10
2018-06-13T12:15:01.312Z,61.50
2018-06-13T12:17:31.206Z,55.00
2018-06-13T12:20:00.030Z,53.20
2018-06-13T12:22:28.898Z,47.40
2018-06-13T12:24:57.773Z,43.80
2018-06-13T12:27:26.676Z,45.40
2018-06-13T12:29:55.584Z,47.00
2018-06-13T12:32:25.344Z,47.70
2018-06-13T12:34:55.218Z,48.20
2018-06-13T12:37:24.159Z,45.70
2018-06-13T12:42:22.724Z,46.80
2018-06-13T12:44:51.710Z,45.60
2018-06-13T12:47:20.528Z,45.00
2018-06-13T12:49:49.566Z,42.70
2018-06-13T12:52:18.684Z,42.70
2018-06-13T12:54:47.798Z,42.80
2018-06-13T12:57:17.573Z,45.40
2018-06-13T12:59:46.472Z,44.60
2018-06-13T13:02:15.303Z,43.00
2018-06-13T13:04:44.373Z,43.80
2018-06-13T13:07:13.554Z,47.40
2018-06-13T13:09:42.747Z,47.80
2018-06-13T13:12:12.018Z,48.10
2018-06-13T13:14:41.047Z,48.30
2018-06-13T13:17:10.127Z,48.80
2018-06-13T13:19:39.223Z,51.70
2018-06-13T13:22:08.120Z,53.00
2018-06-13T13:24:36.966Z,52.80
2018-06-13T13:27:06.783Z,53.30
2018-06-13T13:29:36.478Z,54.80
2018-06-13T13:32:05.763Z,53.70
2018-06-13T13:34:35.129Z,53.20
2018-06-13T13:37:03.939Z,53.30
2018-06-13T13:39:32.796Z,55.00
2018-06-13T13:42:01.631Z,56.40
2018-06-13T13:44:30.556Z,56.10
2018-06-13T13:46:59.427Z,56.50
2018-06-13T13:49:28.318Z,57.50
2018-06-13T13:51:58.627Z,57.10
2018-06-13T13:54:28.354Z,60.80
2018-06-13T13:56:57.210Z,60.70
2018-06-13T13:59:27.095Z,61.70
2018-06-13T14:01:55.990Z,63.60
2018-06-13T14:04:25.866Z,70.80
2018-06-13T14:06:55.165Z,71.30
2018-06-13T14:09:25.895Z,78.80
2018-06-13T14:11:55.809Z,79.00
2018-06-13T14:14:25.455Z,83.50
2018-06-13T14:16:56.968Z,90.70
2018-06-13T14:19:26.642Z,91.70
2018-06-13T14:21:55.787Z,88.90
2018-06-13T14:24:25.384Z,92.60
2018-06-13T14:26:56.405Z,89.80
2018-06-13T14:29:26.432Z,82.70
2018-06-13T14:31:57.573Z,81.20
2018-06-13T14:34:28.568Z,86.50
2018-06-13T14:36:59.345Z,90.10
2018-06-13T14:39:31.992Z,90.50
2018-06-13T14:42:02.805Z,96.30
2018-06-13T14:44:32.860Z,93.20
2018-06-13T14:47:02.220Z,99.90
2018-06-13T14:49:31.880Z,97.90
2018-06-13T14:52:02.186Z,95.00
2018-06-13T14:54:31.889Z,99.90
2018-06-13T14:57:01.800Z,99.40
2018-06-13T14:59:34.442Z,93.80
2018-06-13T15:02:03.900Z,94.10
2018-06-13T15:04:35.744Z,97.30
2018-06-13T15:07:06.867Z,94.90
2018-06-13T15:09:36.397Z,92.10
2018-06-13T15:12:05.652Z,96.60
2018-06-13T15:14:35.800Z,86.60
2018-06-13T15:17:07.938Z,89.20
2018-06-13T15:19:38.504Z,95.40
2018-06-13T15:22:08.690Z,80.40
2018-06-13T15:24:39.495Z,76.90
2018-06-13T15:27:10.316Z,82.90
2018-06-13T15:29:39.472Z,91.50
2018-06-13T15:32:10.115Z,75.90
2018-06-13T15:34:39.303Z,76.00
2018-06-13T15:37:09.239Z,80.30
2018-06-13T15:39:38.506Z,75.20
2018-06-13T15:42:11.487Z,78.10
2018-06-13T15:44:43.008Z,79.40
2018-06-13T15:47:13.670Z,81.90
2018-06-13T15:49:44.787Z,84.20
2018-06-13T15:52:14.978Z,84.00
2018-06-13T15:54:45.249Z,86.30
2018-06-13T15:57:16.783Z,83.10
2018-06-13T15:59:47.209Z,73.20
2018-06-13T16:02:16.200Z,73.10
2018-06-13T16:04:47.304Z,75.00
2018-06-13T16:07:16.309Z,73.80
2018-06-13T16:09:45.270Z,75.50
2018-06-13T16:12:14.321Z,77.70
2018-06-13T16:14:44.239Z,67.10
2018-06-13T16:17:13.861Z,68.40
2018-06-13T16:19:43.253Z,63.90
2018-06-13T16:22:12.847Z,67.10
2018-06-13T16:24:43.028Z,67.60
2018-06-13T16:27:12.652Z,69.60
2018-06-13T16:29:41.982Z,70.70
2018-06-13T16:32:11.317Z,65.90
2018-06-13T16:34:40.410Z,67.30
2018-06-13T16:37:09.552Z,69.70
2018-06-13T16:39:39.558Z,68.60
2018-06-13T16:42:09.920Z,72.60
2018-06-13T16:44:39.861Z,73.50
2018-06-13T16:47:08.900Z,73.80
2018-06-13T16:49:38.601Z,75.30
2018-06-13T16:52:19.060Z,78.20
2018-06-13T16:54:59.212Z,78.70
2018-06-13T16:57:28.411Z,81.60
2018-06-13T16:59:58.310Z,79.80
2018-06-13T17:02:29.092Z,79.30
2018-06-13T17:04:58.067Z,83.00
2018-06-13T17:09:55.993Z,88.20
2018-06-13T17:12:25.002Z,88.90
2018-06-13T17:14:53.924Z,90.10
2018-06-13T17:17:22.843Z,91.50
2018-06-13T17:19:51.744Z,91.60
2018-06-13T17:22:22.542Z,93.00
2018-06-13T17:24:51.567Z,93.90
2018-06-13T17:27:20.651Z,95.40
2018-06-13T17:29:49.645Z,97.50
2018-06-13T17:32:18.612Z,97.30
2018-06-13T17:34:48.390Z,98.50
2018-06-13T17:37:17.689Z,99.90
2018-06-13T17:39:47.398Z,99.90
2018-06-13T17:42:16.574Z,99.90
2018-06-13T17:44:47.583Z,99.90
2018-06-13T17:47:19.601Z,99.90
2018-06-13T17:49:49.110Z,99.90
2018-06-13T17:52:19.317Z,99.90
2018-06-13T17:54:49.535Z,99.90
2018-06-13T17:57:19.373Z,99.90
2018-06-13T17:59:49.117Z,99.90
2018-06-13T18:02:19.435Z,99.90
2018-06-13T18:05:29.808Z,99.90
2018-06-13T18:10:27.621Z,99.90
2018-06-13T18:12:56.912Z,99.90
2018-06-13T18:15:26.564Z,99.90
2018-06-13T18:17:55.823Z,99.90
2018-06-13T18:20:25.088Z,99.90
2018-06-13T18:22:54.787Z,99.90
2018-06-13T18:25:24.027Z,99.90
2018-06-13T18:27:53.295Z,99.90
2018-06-13T18:30:22.621Z,99.90
2018-06-13T18:32:52.242Z,99.90
2018-06-13T18:35:21.321Z,99.90
2018-06-13T18:37:50.374Z,99.90
2018-06-13T18:40:19.589Z,99.90
2018-06-13T18:42:49.074Z,99.90
2018-06-13T18:45:18.039Z,99.90
2018-06-13T18:47:47.203Z,99.90
2018-06-13T18:50:18.696Z,99.90
2018-06-13T18:52:48.655Z,99.90
2018-06-13T18:55:18.229Z,99.90
2018-06-13T18:57:47.773Z,99.90
2018-06-13T19:00:18.449Z,99.90
2018-06-13T19:02:47.790Z,99.90
2018-06-13T19:05:16.987Z,99.90
2018-06-13T19:07:46.348Z,99.90
2018-06-13T19:10:15.539Z,99.90
2018-06-13T19:12:45.811Z,99.90
2018-06-13T19:15:14.952Z,99.90
2018-06-13T19:17:45.825Z,99.90
2018-06-13T19:20:16.014Z,99.90
2018-06-13T19:22:45.236Z,99.90
2018-06-13T19:25:14.417Z,99.90
2018-06-13T19:27:43.493Z,99.90
2018-06-13T19:30:12.715Z,99.90
2018-06-13T19:32:41.881Z,99.90
2018-06-13T19:35:11.056Z,99.90
2018-06-13T19:37:40.858Z,97.20
2018-06-13T19:40:10.020Z,96.80
2018-06-13T19:42:39.207Z,96.20
2018-06-13T19:45:08.439Z,96.30
2018-06-13T19:50:11.879Z,95.80
2018-06-13T19:52:45.939Z,95.40
2018-06-13T19:55:20.092Z,95.60
2018-06-13T19:57:49.077Z,95.60
2018-06-13T20:00:18.398Z,95.60
2018-06-13T20:02:52.633Z,95.70
2018-06-13T20:05:26.784Z,94.90
2018-06-13T20:07:55.760Z,94.70
2018-06-13T20:10:25.139Z,94.60
2018-06-13T20:12:59.383Z,95.00
2018-06-13T20:15:33.778Z,95.10
2018-06-13T20:20:37.074Z,95.90
2018-06-13T20:23:06.443Z,94.90
2018-06-13T20:25:41.559Z,95.90
2018-06-13T20:28:16.440Z,95.80
2018-06-13T20:30:50.772Z,95.70
2018-06-13T20:33:19.953Z,95.80
2018-06-13T20:35:49.458Z,95.80
2018-06-13T20:38:19.282Z,96.60
2018-06-13T20:40:48.581Z,97.00
2018-06-13T20:43:17.927Z,97.70
2018-06-13T20:45:47.221Z,97.90
2018-06-13T20:48:16.523Z,97.90
2018-06-13T20:50:45.821Z,98.30
2018-06-13T20:53:15.035Z,98.30
2018-06-13T20:55:44.142Z,97.60
2018-06-13T20:58:13.219Z,97.20
2018-06-13T21:00:42.545Z,97.30
2018-06-13T21:03:11.827Z,97.90
2018-06-13T21:05:40.982Z,96.90
2018-06-13T21:08:10.304Z,97.10
2018-06-13T21:10:39.644Z,97.50
2018-06-13T21:13:08.570Z,96.70
2018-06-13T21:15:39.156Z,95.50
2018-06-13T21:18:08.211Z,96.20
2018-06-13T21:20:37.115Z,97.20
2018-06-13T21:23:06.384Z,97.40
2018-06-13T21:25:36.375Z,97.20
2018-06-13T21:28:05.569Z,98.60
2018-06-13T21:30:34.795Z,97.90
2018-06-13T21:33:04.939Z,99.10
2018-06-13T21:35:34.217Z,98.40
2018-06-13T21:38:03.424Z,98.80
2018-06-13T21:40:32.717Z,98.40
2018-06-13T21:43:03.489Z,98.30
2018-06-13T21:45:32.639Z,99.00
2018-06-13T21:48:01.955Z,97.90
2018-06-13T21:50:31.318Z,97.30
2018-06-13T21:53:00.510Z,97.40
2018-06-13T21:55:29.685Z,96.10
2018-06-13T21:57:58.885Z,96.60
2018-06-13T22:00:28.433Z,96.30
2018-06-13T22:02:58.139Z,97.10
2018-06-13T22:05:27.209Z,97.70
2018-06-13T22:07:56.506Z,96.80
2018-06-13T22:10:25.680Z,97.30
2018-06-13T22:12:55.021Z,97.10
2018-06-13T22:15:26.060Z,97.70
2018-06-13T22:17:56.746Z,96.90
2018-06-13T22:22:59.841Z,96.80
2018-06-13T22:25:28.754Z,96.50
2018-06-13T22:27:57.951Z,97.90
2018-06-13T22:30:26.946Z,96.70
2018-06-13T22:32:55.901Z,97.40
2018-06-13T22:35:24.828Z,96.90
2018-06-13T22:37:53.715Z,96.90
2018-06-13T22:40:22.841Z,97.30
2018-06-13T22:42:52.102Z,98.00
2018-06-13T22:45:21.325Z,97.30
2018-06-13T22:47:50.678Z,98.60
2018-06-13T22:50:19.823Z,98.40
2018-06-13T22:52:48.892Z,97.20
2018-06-13T22:55:18.165Z,98.20
2018-06-13T22:57:47.577Z,96.90
2018-06-13T23:00:26.153Z,96.90
2018-06-13T23:02:55.715Z,97.40
2018-06-13T23:05:24.703Z,98.00
2018-06-13T23:07:54.037Z,97.90
2018-06-13T23:10:23.176Z,98.40
2018-06-13T23:12:52.480Z,97.90
2018-06-13T23:15:22.439Z,98.30
2018-06-13T23:17:51.617Z,97.70
2018-06-13T23:20:20.772Z,97.10
2018-06-13T23:22:49.871Z,96.90
2018-06-13T23:25:18.939Z,97.00
2018-06-13T23:27:48.450Z,97.00
2018-06-13T23:30:17.673Z,97.70
2018-06-13T23:32:46.765Z,97.80
2018-06-13T23:35:16.713Z,98.80
2018-06-13T23:37:45.843Z,99.20
2018-06-13T23:40:15.652Z,99.30
2018-06-13T23:42:44.581Z,99.10
2018-06-13T23:45:13.517Z,98.80
2018-06-13T23:47:42.446Z,99.50
2018-06-13T23:50:11.376Z,99.80
2018-06-13T23:52:40.384Z,99.90
2018-06-13T23:55:09.722Z,99.90
2018-06-13T23:57:39.060Z,99.90
